CST,Max TemperatureF,Mean TemperatureF,Min TemperatureF,Max Dew PointF,MeanDew PointF,Min DewpointF,Max Humidity, Mean Humidity, Min Humidity, Max Sea Level PressureIn, Mean Sea Level PressureIn, Min Sea Level PressureIn, Max VisibilityMiles, Mean VisibilityMiles, Min VisibilityMiles, Max Wind SpeedMPH, Mean Wind SpeedMPH, Max Gust SpeedMPH,PrecipitationIn, CloudCover, Events, WindDirDegrees
2012-11-1,77,56,35,43,38,33,85,57,28,30.02,29.97,29.92,10,10,7,13,4,20,0.00,0,,311
2012-11-2,70,58,45,44,40,32,83,60,37,30.02,29.90,29.82,10,10,7,16,9,21,0.00,0,,60
2012-11-3,62,48,33,36,32,28,85,61,36,30.24,30.17,30.04,10,10,8,12,4,14,0.00,0,,354
2012-11-4,71,50,29,42,33,28,92,58,23,30.22,30.12,30.00,10,10,8,22,5,28,T,3,Rain,228
2012-11-5,56,50,43,41,38,37,83,75,66,30.16,30.12,30.04,10,10,9,16,7,24,T,7,,6
2012-11-6,65,49,33,38,29,23,92,57,21,30.14,30.09,30.04,10,9,2,20,7,30,T,2,,302
2012-11-7,61,45,28,31,27,21,75,52,29,30.23,30.13,30.05,10,10,10,10,2,14,0.00,0,,120
2012-11-8,75,58,40,45,36,29,60,45,29,30.05,29.90,29.81,10,10,6,20,7,25,0.00,0,,176
2012-11-9,82,64,45,58,52,44,93,66,39,29.80,29.72,29.65,10,10,10,21,8,32,0.00,0,,189
2012-11-10,78,68,58,57,55,51,63,55,47,29.69,29.63,29.55,10,9,2,35,19,47,0.54,3,Rain-Thunderstorm,206
2012-11-11,59,42,25,55,29,15,93,67,40,30.29,29.96,29.63,10,10,4,23,8,26,0.20,5,Rain-Thunderstorm,307
2012-11-12,50,36,22,21,18,12,88,56,23,30.44,30.39,30.30,10,10,10,20,5,28,0.00,0,,263
2012-11-13,61,41,21,31,26,19,92,60,27,30.44,30.38,30.30,10,10,4,16,4,21,0.00,0,,198
2012-11-14,61,44,26,29,26,23,85,55,25,30.38,30.31,30.24,10,10,5,16,4,21,0.00,0,,196
2012-11-15,56,42,28,35,32,29,92,67,41,30.43,30.31,30.22,10,10,8,9,1,14,0.00,1,,213
2012-11-16,63,44,24,37,32,24,100,67,34,30.49,30.40,30.32,10,8,1,12,2,16,0.00,0,,141
2012-11-17,64,49,33,34,31,26,82,57,32,30.34,30.27,30.19,10,10,10,28,9,35,0.00,0,,190
2012-11-18,68,57,45,36,33,27,53,43,32,30.19,30.12,30.04,10,10,10,24,12,30,0.00,1,,185
2012-11-19,70,54,38,44,40,37,93,63,33,30.16,30.09,30.04,10,10,7,17,7,22,0.00,0,,229
2012-11-20,67,48,29,39,34,30,100,66,32,30.27,30.21,30.16,10,10,6,8,1,10,0.00,0,,220
2012-11-21,75,54,32,48,40,29,96,67,38,30.19,30.07,29.87,10,10,10,30,12,39,0.00,0,,204
2012-11-22,75,58,41,51,43,31,70,49,28,30.32,29.96,29.78,10,10,9,25,11,33,0.00,0,,247
2012-11-23,43,32,21,28,16,11,74,51,27,30.60,30.50,30.34,10,10,10,15,5,23,0.00,0,,316
2012-11-24,54,37,19,25,21,15,84,58,31,30.43,30.14,29.87,10,10,10,22,8,30,0.00,0,,201
2012-11-25,59,42,25,33,28,23,85,60,35,30.08,29.97,29.88,10,10,10,15,6,21,0.00,0,,39
2012-11-26,43,31,18,27,24,15,85,68,51,30.51,30.34,30.09,10,10,7,22,9,30,0.00,2,,24
2012-11-27,46,29,11,25,18,8,88,65,41,30.51,30.39,30.27,10,8,5,17,6,23,0.00,0,,214
2012-11-28,59,38,17,33,25,15,92,61,30,30.42,30.30,30.12,10,9,5,15,2,25,0.00,0,,187
2012-11-29,63,46,29,40,35,28,92,68,43,30.10,30.02,29.95,10,10,7,14,3,16,0.00,0,,227
2012-11-30,57,42,26,43,32,23,100,72,43,30.12,30.06,29.96,10,5,0,9,2,13,0.00,1,Fog,99